Time;durP1;ratioP1;P1;durP2;ratioP2;P2;SDS_P1;SDS_P2;PMS_P1;PMS_P2;Temp;Humidity;BMP_temperature;BMP_pressure;BME280_temperature;BME280_humidity;BME280_pressure;Samples;Min_cycle;Max_cycle;Signal;HPM_P1;HPM_P2
2021/10/11 00:00:06;;;;;;;13.33;12.07;;;9.70;72.50;;;;;;5010425;28;20186;-85
2021/10/11 00:02:32;;;;;;;13.43;12.13;;;9.50;72.70;;;;;;5008731;28;20209;-84
2021/10/11 00:04:58;;;;;;;12.10;10.80;;;9.40;73.70;;;;;;5009831;28;20259;-86
2021/10/11 00:07:24;;;;;;;12.33;11.03;;;9.40;73.40;;;;;;5015948;28;20165;-84
2021/10/11 00:09:50;;;;;;;12.03;10.77;;;9.40;73.60;;;;;;5028262;28;20262;-84
2021/10/11 00:12:19;;;;;;;12.50;11.30;;;9.40;74.20;;;;;;5041626;28;20308;-85
2021/10/11 00:14:44;;;;;;;12.80;11.47;;;9.30;72.70;;;;;;5031722;28;20194;-84
2021/10/11 00:17:10;;;;;;;12.23;11.10;;;9.20;72.00;;;;;;5011605;28;20197;-86
2021/10/11 00:19:37;;;;;;;12.43;11.23;;;9.10;74.40;;;;;;5004855;28;20197;-85
2021/10/11 00:22:03;;;;;;;11.43;10.33;;;9.20;75.20;;;;;;4995085;28;20218;-85
2021/10/11 00:24:29;;;;;;;11.77;10.57;;;9.20;74.10;;;;;;5009042;28;20217;-86
2021/10/11 00:26:55;;;;;;;12.60;11.30;;;9.20;73.50;;;;;;5007852;28;20205;-86
2021/10/11 00:29:20;;;;;;;11.53;10.37;;;9.20;73.50;;;;;;5010024;28;20194;-85
2021/10/11 00:31:46;;;;;;;11.30;10.30;;;9.30;73.40;;;;;;5009707;28;20209;-85
2021/10/11 00:34:12;;;;;;;11.97;10.77;;;9.30;73.20;;;;;;5008770;28;20201;-84
2021/10/11 00:36:37;;;;;;;12.00;10.90;;;9.30;74.00;;;;;;5010285;28;20197;-86
2021/10/11 00:39:03;;;;;;;11.60;10.50;;;9.20;72.50;;;;;;5009847;28;20209;-85
2021/10/11 00:41:31;;;;;;;11.67;10.50;;;9.20;73.40;;;;;;5011378;28;20269;-86
2021/10/11 00:44:01;;;;;;;11.30;10.27;;;9.20;72.80;;;;;;5008954;28;20213;-86
2021/10/11 00:46:27;;;;;;;10.87;9.87;;;9.20;72.80;;;;;;5011469;28;20201;-86
2021/10/11 00:48:53;;;;;;;11.43;10.33;;;9.20;72.60;;;;;;5011930;28;20190;-85
2021/10/11 00:51:19;;;;;;;10.83;9.73;;;9.20;73.50;;;;;;5010122;28;20209;-85
2021/10/11 00:53:45;;;;;;;11.70;10.60;;;9.10;73.20;;;;;;5010947;28;20202;-84
2021/10/11 00:56:11;;;;;;;11.37;10.07;;;9.10;72.80;;;;;;5012221;28;20194;-83
2021/10/11 00:58:37;;;;;;;12.00;10.90;;;9.10;73.30;;;;;;5014142;28;20285;-84
2021/10/11 01:01:03;;;;;;;12.43;10.70;;;9.10;73.60;;;;;;5013166;28;20201;-83
2021/10/11 01:03:28;;;;;;;11.87;10.67;;;9.00;74.00;;;;;;5015689;28;20215;-86
2021/10/11 01:05:54;;;;;;;12.43;11.33;;;9.00;73.90;;;;;;5014623;28;20185;-86
2021/10/11 01:08:20;;;;;;;13.20;11.90;;;9.00;74.40;;;;;;5013901;28;20276;-86
2021/10/11 01:10:48;;;;;;;12.60;11.40;;;8.90;75.60;;;;;;5014694;28;20196;-84
2021/10/11 01:13:14;;;;;;;12.53;11.33;;;9.00;76.10;;;;;;5014065;28;20689;-85
2021/10/11 01:15:40;;;;;;;11.00;10.00;;;9.00;75.90;;;;;;5011601;28;20185;-85
2021/10/11 01:18:06;;;;;;;11.43;10.20;;;9.00;76.20;;;;;;5000044;28;20194;-84
2021/10/11 01:20:31;;;;;;;10.17;9.27;;;9.00;75.80;;;;;;5004645;28;20194;-85
2021/10/11 01:22:57;;;;;;;10.53;9.63;;;8.90;75.60;;;;;;5011723;28;20225;-85
2021/10/11 01:25:23;;;;;;;12.00;10.90;;;8.90;75.80;;;;;;5014913;28;20589;-85
2021/10/11 01:27:49;;;;;;;11.30;10.33;;;9.00;75.80;;;;;;5003932;28;20280;-85
2021/10/11 01:30:16;;;;;;;11.53;10.53;;;8.90;75.60;;;;;;5015076;28;20193;-86
2021/10/11 01:32:45;;;;;;;11.00;10.10;;;8.90;75.40;;;;;;5013964;28;20297;-85
2021/10/11 01:35:12;;;;;;;11.30;10.40;;;8.80;75.00;;;;;;5013674;28;20188;-85
2021/10/11 01:37:38;;;;;;;11.37;10.37;;;8.80;75.20;;;;;;5015530;28;20193;-85
2021/10/11 01:40:06;;;;;;;11.27;10.30;;;8.80;75.50;;;;;;5010987;28;20202;-85
2021/10/11 01:42:32;;;;;;;10.23;9.40;;;8.80;75.40;;;;;;5004250;28;20217;-85
2021/10/11 01:44:58;;;;;;;10.27;9.37;;;8.80;74.70;;;;;;5016269;28;20243;-86
2021/10/11 01:47:25;;;;;;;10.43;9.43;;;8.80;74.80;;;;;;5024515;28;20557;-86
2021/10/11 01:49:51;;;;;;;10.30;9.33;;;8.80;74.50;;;;;;5017821;28;20193;-85
2021/10/11 01:52:17;;;;;;;10.90;9.90;;;8.80;74.70;;;;;;5009111;28;20766;-86
2021/10/11 01:54:43;;;;;;;10.07;9.27;;;8.80;74.70;;;;;;5018985;28;20204;-85
2021/10/11 01:57:09;;;;;;;10.80;9.90;;;8.80;74.60;;;;;;5017466;28;20273;-86
2021/10/11 01:59:35;;;;;;;9.70;8.90;;;8.80;74.40;;;;;;5017216;28;20271;-85
2021/10/11 02:02:02;;;;;;;11.43;10.33;;;8.70;75.00;;;;;;5018620;28;20209;-85
2021/10/11 02:04:28;;;;;;;11.23;10.13;;;8.60;75.10;;;;;;5022222;28;20436;-84
2021/10/11 02:06:54;;;;;;;10.30;9.40;;;8.70;74.70;;;;;;5049417;28;20186;-84
2021/10/11 02:09:20;;;;;;;9.87;9.07;;;8.50;74.50;;;;;;5018843;28;20201;-86
2021/10/11 02:11:46;;;;;;;10.50;9.60;;;8.50;75.50;;;;;;5018546;28;20221;-85
2021/10/11 02:14:12;;;;;;;10.30;9.37;;;8.50;75.10;;;;;;5013117;28;20816;-85
2021/10/11 02:16:37;;;;;;;10.30;9.30;;;8.40;75.20;;;;;;5018401;28;20288;-85
2021/10/11 02:19:03;;;;;;;10.47;9.57;;;8.50;75.20;;;;;;4998755;28;20559;-85
2021/10/11 02:21:29;;;;;;;9.50;8.70;;;8.50;75.00;;;;;;5015139;28;20220;-86
2021/10/11 02:23:55;;;;;;;10.70;9.80;;;8.50;74.80;;;;;;5018381;28;20222;-84
2021/10/11 02:26:22;;;;;;;10.47;9.57;;;8.50;75.10;;;;;;5016869;28;20190;-84
2021/10/11 02:28:48;;;;;;;12.00;10.80;;;8.60;75.10;;;;;;5012862;28;20394;-85
2021/10/11 02:31:14;;;;;;;10.63;9.67;;;8.50;75.00;;;;;;5003369;28;20248;-85
2021/10/11 02:33:40;;;;;;;10.50;9.60;;;8.40;74.10;;;;;;5012951;28;20558;-86
2021/10/11 02:36:06;;;;;;;10.67;9.77;;;8.30;75.30;;;;;;5011797;28;20282;-85
2021/10/11 02:38:32;;;;;;;12.33;11.13;;;8.30;76.10;;;;;;5022174;28;20181;-83
2021/10/11 02:40:57;;;;;;;12.00;10.97;;;8.20;76.50;;;;;;5032341;28;20202;-82
2021/10/11 02:43:23;;;;;;;11.50;10.40;;;8.30;76.90;;;;;;5032671;28;20222;-83
2021/10/11 02:45:49;;;;;;;10.80;9.80;;;8.30;76.70;;;;;;5018445;28;20834;-85
2021/10/11 02:48:15;;;;;;;10.60;9.70;;;8.30;77.10;;;;;;5012916;28;20201;-85
2021/10/11 02:50:41;;;;;;;11.30;10.20;;;8.30;77.70;;;;;;5013128;28;20261;-86
2021/10/11 02:53:07;;;;;;;10.73;9.73;;;8.30;77.70;;;;;;5011620;28;20217;-86
2021/10/11 02:55:32;;;;;;;10.87;9.87;;;8.40;77.50;;;;;;5013507;28;20257;-85
2021/10/11 02:57:58;;;;;;;10.87;9.90;;;8.40;77.60;;;;;;5013941;28;20193;-85
2021/10/11 03:00:24;;;;;;;11.20;10.20;;;8.40;77.40;;;;;;5010219;28;20574;-84
2021/10/11 03:02:49;;;;;;;11.67;10.67;;;8.10;76.10;;;;;;5023981;28;20340;-85
2021/10/11 03:05:15;;;;;;;12.70;11.37;;;8.10;76.80;;;;;;5012123;28;20201;-86
2021/10/11 03:07:41;;;;;;;11.87;10.80;;;8.00;77.50;;;;;;5011213;28;20251;-85
2021/10/11 03:10:07;;;;;;;10.57;9.67;;;7.80;78.40;;;;;;5010347;28;20685;-84
2021/10/11 03:12:34;;;;;;;11.07;10.00;;;7.90;78.90;;;;;;5011142;28;20598;-84
2021/10/11 03:14:59;;;;;;;10.93;9.90;;;7.90;78.20;;;;;;5011110;28;21171;-85
2021/10/11 03:17:25;;;;;;;10.53;9.63;;;7.90;77.90;;;;;;5010836;28;20233;-85
2021/10/11 03:19:51;;;;;;;10.37;9.37;;;7.90;76.80;;;;;;5005248;28;20229;-85
2021/10/11 03:22:16;;;;;;;11.23;10.07;;;7.90;77.00;;;;;;5011618;28;20218;-84
2021/10/11 03:24:42;;;;;;;9.83;8.93;;;7.90;77.10;;;;;;5008784;28;20749;-86
2021/10/11 03:27:08;;;;;;;10.73;9.80;;;7.90;76.70;;;;;;5011614;28;20193;-86
2021/10/11 03:29:33;;;;;;;10.63;9.63;;;7.90;76.50;;;;;;5027453;28;20276;-84
2021/10/11 03:31:59;;;;;;;11.73;10.60;;;7.80;78.10;;;;;;5009883;28;20232;-86
2021/10/11 03:34:25;;;;;;;10.73;9.63;;;7.60;77.40;;;;;;5011172;28;20198;-84
2021/10/11 03:36:50;;;;;;;12.47;10.43;;;7.50;77.00;;;;;;5010171;28;20335;-85
2021/10/11 03:39:16;;;;;;;11.13;9.97;;;7.50;78.30;;;;;;5011468;28;20212;-84
2021/10/11 03:41:42;;;;;;;9.93;9.03;;;7.50;78.80;;;;;;5007919;28;20363;-86
2021/10/11 03:44:07;;;;;;;11.23;10.23;;;7.50;80.30;;;;;;5010901;28;20232;-85
2021/10/11 03:46:34;;;;;;;10.83;9.87;;;7.30;79.00;;;;;;5011471;28;20194;-84
2021/10/11 03:49:01;;;;;;;10.50;9.50;;;7.10;80.90;;;;;;5010254;28;20189;-85
2021/10/11 03:51:27;;;;;;;10.73;9.73;;;7.20;82.20;;;;;;5008239;28;20245;-84
2021/10/11 03:53:53;;;;;;;10.43;9.53;;;7.40;80.10;;;;;;5010164;28;20205;-85
2021/10/11 03:56:18;;;;;;;10.50;9.50;;;7.20;79.80;;;;;;5007291;28;20269;-85
2021/10/11 03:58:44;;;;;;;9.67;8.83;;;7.30;80.80;;;;;;5008531;28;20708;-85
2021/10/11 04:01:10;;;;;;;10.17;9.27;;;7.50;79.80;;;;;;5026146;28;20195;-85
2021/10/11 04:03:35;;;;;;;10.17;9.27;;;7.50;78.20;;;;;;5023587;28;20201;-84
2021/10/11 04:06:01;;;;;;;9.27;8.47;;;7.50;78.60;;;;;;5009366;28;20585;-85
2021/10/11 04:08:34;;;;;;;10.40;9.50;;;7.60;78.50;;;;;;5009733;28;20232;-85
2021/10/11 04:11:45;;;;;;;10.90;9.87;;;7.50;77.00;;;;;;5005989;28;20186;-84
2021/10/11 04:13:46;;;;;;;10.47;9.67;;;7.30;78.10;;;;;;5009990;28;20205;-85
2021/10/11 04:16:12;;;;;;;14.70;10.10;;;7.20;80.90;;;;;;5010543;28;20193;-86
2021/10/11 04:18:38;;;;;;;11.23;10.30;;;7.20;81.60;;;;;;5009609;28;20178;-83
2021/10/11 04:21:04;;;;;;;9.77;8.87;;;7.30;80.10;;;;;;5006917;28;20190;-83
2021/10/11 04:23:30;;;;;;;11.03;9.93;;;7.30;81.60;;;;;;5026827;28;20227;-84
2021/10/11 04:25:56;;;;;;;10.90;9.90;;;7.40;80.10;;;;;;5012424;28;20185;-84
2021/10/11 04:28:23;;;;;;;10.17;9.20;;;7.30;80.40;;;;;;5022074;28;20170;-83
2021/10/11 04:30:49;;;;;;;11.37;10.37;;;7.20;80.00;;;;;;5025346;28;20257;-84
2021/10/11 04:33:15;;;;;;;11.63;10.50;;;7.00;81.10;;;;;;5025560;28;20264;-84
2021/10/11 04:35:41;;;;;;;10.90;9.90;;;6.70;81.80;;;;;;5009236;28;20222;-86
2021/10/11 04:38:07;;;;;;;10.20;9.20;;;6.40;81.40;;;;;;5005490;28;20631;-86
2021/10/11 04:40:35;;;;;;;10.17;9.27;;;6.20;84.40;;;;;;5008968;28;20662;-86
2021/10/11 04:43:01;;;;;;;11.20;10.10;;;6.40;85.20;;;;;;5009793;28;20214;-87
2021/10/11 04:45:30;;;;;;;14.50;10.93;;;6.60;82.60;;;;;;5008036;28;20232;-85
2021/10/11 04:47:58;;;;;;;21.70;10.57;;;6.40;83.50;;;;;;5007097;28;20198;-87
2021/10/11 04:50:24;;;;;;;14.57;10.13;;;6.20;84.00;;;;;;5024182;28;20196;-87
2021/10/11 04:52:50;;;;;;;14.20;10.07;;;5.80;85.60;;;;;;5009188;28;20205;-85
2021/10/11 04:55:16;;;;;;;10.90;9.77;;;5.80;86.50;;;;;;5006200;28;20202;-85
2021/10/11 04:57:41;;;;;;;10.83;9.77;;;6.10;88.00;;;;;;5009105;28;20249;-85
2021/10/11 05:00:08;;;;;;;13.80;12.17;;;6.30;86.40;;;;;;5009296;28;20205;-84
2021/10/11 05:02:34;;;;;;;11.27;9.70;;;6.60;84.50;;;;;;5014504;28;20228;-85
2021/10/11 05:04:59;;;;;;;20.13;16.80;;;6.80;83.20;;;;;;5010499;28;20292;-85
2021/10/11 05:07:25;;;;;;;10.37;9.37;;;6.80;83.20;;;;;;5010014;28;20684;-85
2021/10/11 05:09:51;;;;;;;10.57;9.33;;;7.00;81.90;;;;;;5006822;28;20197;-86
2021/10/11 05:12:16;;;;;;;86.60;66.77;;;7.00;81.60;;;;;;5006829;28;20674;-85
2021/10/11 05:14:42;;;;;;;10.33;9.33;;;7.10;81.60;;;;;;5010506;28;20237;-88
2021/10/11 05:17:08;;;;;;;12.57;10.27;;;7.20;81.00;;;;;;5010188;28;20197;-90
2021/10/11 05:19:33;;;;;;;11.53;10.37;;;7.20;80.90;;;;;;5010955;28;20213;-88
2021/10/11 05:21:59;;;;;;;17.50;16.07;;;7.20;80.50;;;;;;5013495;28;20221;-88
2021/10/11 05:24:25;;;;;;;18.30;11.60;;;7.20;80.30;;;;;;5012724;28;20229;-87
2021/10/11 05:26:53;;;;;;;13.40;12.20;;;7.10;79.50;;;;;;5009492;28;20237;-85
2021/10/11 05:29:19;;;;;;;10.60;9.63;;;7.00;80.90;;;;;;5010206;28;20197;-85
2021/10/11 05:31:46;;;;;;;13.30;12.00;;;7.00;81.20;;;;;;5008425;28;20297;-86
2021/10/11 05:34:12;;;;;;;11.13;10.13;;;7.00;81.20;;;;;;5008707;28;20244;-85
2021/10/11 05:36:37;;;;;;;10.07;8.93;;;7.00;80.70;;;;;;5007925;28;20197;-87
2021/10/11 05:39:03;;;;;;;10.93;9.83;;;7.10;81.10;;;;;;5013861;28;20189;-88
2021/10/11 05:41:29;;;;;;;14.13;9.07;;;7.10;80.90;;;;;;5010384;28;20217;-85
2021/10/11 05:43:55;;;;;;;14.23;10.17;;;7.10;81.70;;;;;;5014596;28;20213;-84
2021/10/11 05:46:20;;;;;;;16.73;12.23;;;7.00;82.40;;;;;;5016018;28;20568;-86
2021/10/11 05:48:46;;;;;;;14.90;11.23;;;6.90;83.10;;;;;;5012164;28;20197;-86
2021/10/11 05:51:12;;;;;;;11.97;10.77;;;6.70;84.40;;;;;;5000558;28;20206;-86
2021/10/11 05:53:46;;;;;;;16.47;11.77;;;6.30;86.90;;;;;;5009817;28;20194;-87
2021/10/11 05:56:12;;;;;;;13.87;10.67;;;6.30;87.00;;;;;;5011836;28;20192;-85
2021/10/11 05:58:38;;;;;;;14.33;11.37;;;6.00;88.60;;;;;;4992228;28;20198;-89
2021/10/11 06:01:04;;;;;;;12.93;11.10;;;5.90;89.60;;;;;;5009109;28;20194;-90
2021/10/11 06:03:30;;;;;;;12.80;11.33;;;6.00;89.80;;;;;;5006137;28;20269;-87
2021/10/11 06:05:56;;;;;;;11.87;10.77;;;6.10;90.00;;;;;;5011980;28;20629;-87
2021/10/11 06:08:22;;;;;;;12.07;10.87;;;6.30;89.50;;;;;;5005160;28;20253;-86
2021/10/11 06:10:48;;;;;;;11.43;10.23;;;6.40;88.50;;;;;;5008982;28;20284;-86
2021/10/11 06:13:14;;;;;;;14.93;10.30;;;6.40;87.80;;;;;;5012315;28;20210;-86
2021/10/11 06:15:39;;;;;;;11.73;10.53;;;6.60;87.90;;;;;;5005345;28;20209;-87
2021/10/11 06:18:05;;;;;;;11.93;10.83;;;6.50;88.10;;;;;;5016903;28;20301;-91
2021/10/11 06:20:31;;;;;;;11.67;10.47;;;6.50;88.50;;;;;;5005865;28;20217;-90
2021/10/11 06:22:57;;;;;;;20.23;11.73;;;6.70;88.00;;;;;;5010825;28;20232;-90
2021/10/11 06:25:23;;;;;;;12.00;10.67;;;6.70;86.90;;;;;;5013761;28;20241;-90
2021/10/11 06:27:48;;;;;;;13.00;11.83;;;6.60;88.50;;;;;;5004669;28;20193;-88
2021/10/11 06:30:15;;;;;;;12.03;10.93;;;6.70;87.80;;;;;;5008688;28;20192;-87
2021/10/11 06:32:41;;;;;;;20.53;11.37;;;6.80;86.90;;;;;;5007110;28;20231;-85
2021/10/11 06:35:07;;;;;;;12.47;11.17;;;6.70;87.40;;;;;;5012617;28;20271;-82
2021/10/11 06:37:33;;;;;;;12.67;10.70;;;6.70;87.90;;;;;;5025278;28;20214;-86
2021/10/11 06:39:59;;;;;;;11.93;10.83;;;6.60;89.30;;;;;;5021858;28;20206;-86
2021/10/11 06:42:25;;;;;;;14.67;12.20;;;6.60;89.50;;;;;;5031787;28;20305;-86
2021/10/11 06:44:51;;;;;;;13.83;11.80;;;6.50;90.00;;;;;;5018192;28;20668;-84
2021/10/11 06:47:17;;;;;;;20.17;13.50;;;6.50;90.10;;;;;;5010536;28;20196;-88
2021/10/11 06:49:45;;;;;;;17.30;13.70;;;6.30;90.80;;;;;;4998300;28;20280;-83
2021/10/11 06:52:12;;;;;;;14.60;13.07;;;6.40;91.70;;;;;;5014179;28;20221;-85
2021/10/11 06:54:37;;;;;;;16.90;13.80;;;6.40;92.00;;;;;;5019805;28;20682;-85
2021/10/11 06:57:03;;;;;;;13.63;12.33;;;6.50;92.00;;;;;;5007609;28;20205;-84
2021/10/11 06:59:29;;;;;;;16.87;14.13;;;6.50;92.90;;;;;;5008797;28;20209;-85
2021/10/11 07:01:55;;;;;;;16.50;14.70;;;6.60;92.20;;;;;;5014537;28;20209;-83
2021/10/11 07:04:21;;;;;;;17.83;14.33;;;6.80;91.70;;;;;;5025699;28;20426;-82
2021/10/11 07:06:47;;;;;;;17.37;15.07;;;6.80;91.70;;;;;;5025164;28;20208;-83
2021/10/11 07:09:13;;;;;;;22.67;15.43;;;6.70;92.20;;;;;;5021967;28;20267;-84
2021/10/11 07:11:39;;;;;;;18.20;14.30;;;6.80;92.90;;;;;;5025432;28;20290;-86
2021/10/11 07:14:05;;;;;;;17.30;15.70;;;6.80;93.20;;;;;;5012621;28;20198;-86
2021/10/11 07:16:31;;;;;;;18.33;16.13;;;6.90;93.30;;;;;;5008644;28;20205;-85
2021/10/11 07:18:57;;;;;;;17.67;15.37;;;7.00;93.00;;;;;;5006286;28;20194;-83
2021/10/11 07:21:23;;;;;;;17.17;14.73;;;7.20;92.20;;;;;;4998754;28;20732;-85
2021/10/11 07:23:49;;;;;;;19.67;15.83;;;7.40;92.10;;;;;;5004394;28;20302;-84
2021/10/11 07:26:14;;;;;;;16.43;14.73;;;7.50;91.20;;;;;;5005488;28;20558;-87
2021/10/11 07:28:40;;;;;;;22.57;17.83;;;7.60;90.90;;;;;;5005430;28;20272;-85
2021/10/11 07:31:06;;;;;;;22.13;16.37;;;7.60;90.40;;;;;;5003455;28;20190;-83
2021/10/11 07:33:32;;;;;;;16.43;14.57;;;7.70;90.10;;;;;;5000628;28;20207;-84
2021/10/11 07:35:57;;;;;;;16.97;15.17;;;7.50;90.60;;;;;;5006980;28;20224;-87
2021/10/11 07:38:23;;;;;;;18.40;15.60;;;7.50;91.10;;;;;;5001704;28;20272;-85
2021/10/11 07:40:50;;;;;;;18.33;16.50;;;7.50;91.50;;;;;;5008928;28;20232;-87
2021/10/11 07:43:16;;;;;;;19.97;15.93;;;7.40;92.20;;;;;;5009879;28;20205;-85
2021/10/11 07:45:41;;;;;;;18.47;16.57;;;7.30;92.40;;;;;;5008181;28;20221;-81
2021/10/11 07:48:07;;;;;;;20.07;17.00;;;6.90;94.80;;;;;;5002532;28;20203;-83
2021/10/11 07:50:33;;;;;;;18.27;16.47;;;7.00;94.90;;;;;;5007401;28;20647;-85
2021/10/11 07:52:59;;;;;;;21.30;19.20;;;7.10;95.20;;;;;;5004298;28;20221;-83
2021/10/11 07:55:24;;;;;;;17.87;16.17;;;7.40;94.60;;;;;;5010373;28;20333;-86
2021/10/11 07:57:50;;;;;;;18.90;16.90;;;7.70;93.00;;;;;;5003786;28;20225;-82
2021/10/11 08:00:18;;;;;;;19.40;17.43;;;7.80;92.50;;;;;;5000267;28;20221;-83
2021/10/11 08:02:45;;;;;;;19.77;17.77;;;7.80;92.70;;;;;;5002883;28;20313;-83
2021/10/11 08:05:13;;;;;;;20.37;18.30;;;7.90;93.40;;;;;;5000624;28;20222;-84
2021/10/11 08:07:40;;;;;;;23.97;21.40;;;7.90;93.80;;;;;;4999447;28;20740;-86
2021/10/11 08:10:06;;;;;;;24.83;20.23;;;8.00;93.80;;;;;;5008546;28;20189;-85
2021/10/11 08:12:32;;;;;;;24.60;21.93;;;8.00;93.50;;;;;;4990807;28;20222;-86
2021/10/11 08:14:58;;;;;;;24.07;21.63;;;8.00;94.60;;;;;;5012849;28;20310;-86
2021/10/11 08:17:23;;;;;;;24.07;21.47;;;8.10;93.90;;;;;;5008928;28;20195;-86
2021/10/11 08:19:49;;;;;;;23.43;20.93;;;8.10;93.40;;;;;;5009035;28;20198;-87
2021/10/11 08:22:19;;;;;;;24.43;22.13;;;8.20;92.90;;;;;;5006715;28;20213;-86
2021/10/11 08:24:46;;;;;;;22.57;20.27;;;8.30;92.50;;;;;;4996182;28;20230;-87
2021/10/11 08:27:16;;;;;;;24.63;21.20;;;8.30;92.60;;;;;;5004665;28;20747;-87
2021/10/11 08:29:53;;;;;;;23.17;20.77;;;8.40;92.60;;;;;;5000950;28;20184;-87
2021/10/11 08:32:24;;;;;;;22.03;19.83;;;8.60;91.90;;;;;;5001531;28;20223;-88
2021/10/11 08:34:50;;;;;;;21.70;19.50;;;8.70;92.20;;;;;;5010854;28;20208;-87
2021/10/11 08:37:16;;;;;;;23.93;20.13;;;8.60;90.70;;;;;;5008755;28;20194;-87
2021/10/11 08:39:43;;;;;;;22.80;20.27;;;8.60;91.40;;;;;;5013234;28;20669;-87
2021/10/11 08:42:12;;;;;;;23.73;21.27;;;8.60;91.80;;;;;;5009036;28;20248;-87
2021/10/11 08:44:38;;;;;;;23.27;21.07;;;8.60;92.50;;;;;;5010549;28;20733;-87
2021/10/11 08:47:03;;;;;;;24.30;21.87;;;8.70;92.30;;;;;;5018601;28;20275;-89
2021/10/11 08:49:30;;;;;;;25.10;22.43;;;8.70;92.40;;;;;;5006709;28;20190;-88
2021/10/11 08:51:56;;;;;;;24.50;22.03;;;8.60;93.00;;;;;;5016181;28;20244;-87
2021/10/11 08:54:21;;;;;;;23.13;20.80;;;8.60;93.10;;;;;;5024986;28;20194;-88
2021/10/11 08:56:47;;;;;;;28.93;26.03;;;8.50;94.80;;;;;;5019518;28;20729;-87
2021/10/11 08:59:13;;;;;;;22.63;20.43;;;8.80;94.20;;;;;;5015688;28;20255;-88
2021/10/11 09:01:40;;;;;;;24.63;22.10;;;9.00;92.60;;;;;;5019558;28;20244;-86
2021/10/11 09:04:18;;;;;;;24.10;21.60;;;9.10;93.60;;;;;;5019950;28;20216;-87
2021/10/11 09:07:04;;;;;;;22.70;20.47;;;9.30;92.90;;;;;;5018833;28;20193;-87
2021/10/11 09:09:30;;;;;;;23.03;20.67;;;9.40;91.30;;;;;;5014151;28;20252;-87
2021/10/11 09:11:56;;;;;;;25.03;20.50;;;9.60;89.80;;;;;;5010653;28;20656;-88
2021/10/11 09:14:23;;;;;;;22.00;19.67;;;9.60;90.60;;;;;;5010545;28;20198;-87
2021/10/11 09:17:02;;;;;;;23.27;20.97;;;9.80;89.10;;;;;;5014954;28;20206;-88
2021/10/11 09:19:33;;;;;;;22.37;20.33;;;9.90;90.10;;;;;;5013537;28;20601;-87
2021/10/11 09:21:59;;;;;;;23.33;21.00;;;9.90;90.00;;;;;;5015267;28;20781;-87
2021/10/11 09:24:25;;;;;;;24.80;21.80;;;10.00;90.40;;;;;;5019540;28;20237;-86
2021/10/11 09:26:54;;;;;;;23.23;20.83;;;10.10;88.60;;;;;;5013120;28;20654;-87
2021/10/11 09:29:33;;;;;;;25.13;21.00;;;10.30;86.70;;;;;;5012235;28;20197;-87
2021/10/11 09:32:01;;;;;;;25.03;22.43;;;10.40;87.50;;;;;;5016499;28;20213;-87
2021/10/11 09:34:27;;;;;;;24.07;21.73;;;10.40;86.80;;;;;;5015766;28;20269;-87
2021/10/11 09:37:01;;;;;;;24.03;21.80;;;10.40;87.20;;;;;;5014435;28;20717;-87
2021/10/11 09:39:29;;;;;;;26.83;22.40;;;10.40;87.10;;;;;;5033721;28;20200;-87
2021/10/11 09:41:56;;;;;;;26.73;23.37;;;10.20;87.60;;;;;;5009013;28;20217;-87
2021/10/11 09:44:26;;;;;;;25.13;22.43;;;10.20;88.60;;;;;;5008660;28;20211;-84
2021/10/11 09:47:12;;;;;;;26.10;22.20;;;10.00;89.40;;;;;;4996379;28;20596;-89
2021/10/11 09:49:38;;;;;;;23.17;20.73;;;10.10;89.70;;;;;;5004493;28;20209;-88
2021/10/11 09:52:05;;;;;;;25.90;20.20;;;10.60;86.00;;;;;;5011546;28;20267;-88
2021/10/11 09:54:32;;;;;;;24.23;21.63;;;10.90;84.40;;;;;;5010017;28;20190;-85
2021/10/11 09:57:03;;;;;;;22.23;19.93;;;10.90;84.40;;;;;;5012388;28;20190;-90
2021/10/11 09:59:30;;;;;;;22.83;20.53;;;11.00;84.00;;;;;;5013480;28;20190;-87
2021/10/11 10:01:57;;;;;;;23.10;20.70;;;11.00;85.20;;;;;;5008509;28;20908;-86
2021/10/11 10:04:32;;;;;;;22.70;20.40;;;11.00;85.40;;;;;;5011477;28;20260;-86
2021/10/11 10:07:02;;;;;;;23.30;20.90;;;11.20;84.80;;;;;;5008806;28;20181;-87
2021/10/11 10:09:30;;;;;;;24.07;21.57;;;11.40;83.30;;;;;;5001923;28;20304;-87
2021/10/11 10:11:57;;;;;;;22.97;20.57;;;11.50;83.00;;;;;;5009355;28;20256;-87
2021/10/11 10:14:25;;;;;;;25.13;22.63;;;12.00;81.40;;;;;;5006790;28;20200;-86
2021/10/11 10:16:53;;;;;;;22.40;20.10;;;12.30;79.00;;;;;;5008842;28;20222;-87
2021/10/11 10:19:31;;;;;;;27.17;23.93;;;12.60;76.70;;;;;;4997484;28;20990;-87
2021/10/11 10:22:01;;;;;;;22.30;20.20;;;12.50;78.10;;;;;;5005674;28;20218;-88
2021/10/11 10:24:29;;;;;;;24.57;22.07;;;12.30;78.60;;;;;;5011950;28;20255;-86
2021/10/11 10:27:06;;;;;;;21.33;19.23;;;12.50;77.60;;;;;;5010447;28;20216;-86
2021/10/11 10:29:47;;;;;;;24.47;19.93;;;12.70;76.50;;;;;;5005365;28;20781;-84
2021/10/11 10:32:16;;;;;;;24.63;22.00;;;12.70;77.30;;;;;;5009995;28;20200;-90
2021/10/11 10:34:45;;;;;;;22.23;20.07;;;12.80;76.40;;;;;;5003869;28;20197;-89
2021/10/11 10:37:14;;;;;;;22.50;20.10;;;13.00;77.40;;;;;;5016728;28;20811;-89
2021/10/11 10:39:45;;;;;;;21.50;19.30;;;13.30;75.90;;;;;;5005613;28;20276;-89
2021/10/11 10:42:29;;;;;;;23.07;20.67;;;13.40;75.00;;;;;;4995182;28;20307;-88
2021/10/11 10:44:56;;;;;;;21.53;19.43;;;13.40;74.50;;;;;;5000994;28;20212;-89
2021/10/11 10:47:40;;;;;;;22.27;20.07;;;13.50;73.80;;;;;;5007141;28;20290;-88
2021/10/11 10:50:15;;;;;;;27.57;20.60;;;13.80;73.90;;;;;;5006072;28;20196;-87
2021/10/11 10:52:45;;;;;;;20.97;18.97;;;13.80;74.70;;;;;;5010511;28;20294;-86
2021/10/11 10:55:11;;;;;;;23.20;20.80;;;13.60;76.00;;;;;;5007917;28;20264;-87
2021/10/11 10:57:38;;;;;;;22.40;20.30;;;13.80;72.10;;;;;;5006541;28;20300;-89
2021/10/11 11:00:17;;;;;;;19.90;18.00;;;13.80;71.40;;;;;;4983732;28;20205;-89
2021/10/11 11:02:48;;;;;;;20.47;18.57;;;13.90;72.50;;;;;;5000692;28;20214;-88
2021/10/11 11:05:14;;;;;;;21.70;19.53;;;13.80;70.30;;;;;;5006679;28;20212;-91
2021/10/11 11:07:42;;;;;;;22.37;20.17;;;13.40;74.60;;;;;;5005189;28;20201;-88
2021/10/11 11:10:11;;;;;;;26.43;23.93;;;13.60;74.30;;;;;;5005502;28;20244;-89
2021/10/11 11:12:38;;;;;;;20.40;18.17;;;13.70;74.20;;;;;;4998044;28;20228;-88
2021/10/11 11:15:06;;;;;;;20.83;18.73;;;13.80;74.40;;;;;;5002166;28;20230;-89
2021/10/11 11:17:38;;;;;;;19.70;17.90;;;13.90;74.00;;;;;;5003423;28;20196;-88
2021/10/11 11:20:15;;;;;;;20.30;18.20;;;13.80;73.70;;;;;;5004544;28;20260;-88
2021/10/11 11:22:42;;;;;;;21.23;19.03;;;13.40;76.10;;;;;;4998887;28;20217;-89
2021/10/11 11:25:09;;;;;;;21.33;19.20;;;13.20;76.20;;;;;;5011647;28;20331;-88
2021/10/11 11:27:37;;;;;;;20.33;18.27;;;13.10;77.80;;;;;;5028925;28;20193;-87
2021/10/11 11:30:07;;;;;;;19.57;17.63;;;13.40;76.70;;;;;;5027407;28;20189;-87
2021/10/11 11:32:58;;;;;;;20.10;18.07;;;13.40;75.90;;;;;;5028313;28;20245;-87
2021/10/11 11:35:25;;;;;;;19.33;17.33;;;13.40;75.60;;;;;;4999685;28;20206;-89
2021/10/11 11:37:54;;;;;;;25.13;22.53;;;13.40;76.80;;;;;;5016858;28;20198;-88
2021/10/11 11:40:23;;;;;;;20.17;18.27;;;13.40;75.80;;;;;;5016771;28;20316;-88
2021/10/11 11:42:49;;;;;;;21.27;18.50;;;13.30;76.50;;;;;;5021088;28;20205;-88
2021/10/11 11:45:16;;;;;;;21.67;19.67;;;13.40;76.10;;;;;;5017662;28;20571;-88
2021/10/11 11:47:42;;;;;;;19.83;17.73;;;13.40;74.50;;;;;;5017244;28;20830;-88
2021/10/11 11:50:24;;;;;;;19.43;17.53;;;13.40;74.30;;;;;;5015860;28;20201;-88
2021/10/11 11:53:05;;;;;;;19.50;17.60;;;13.40;75.10;;;;;;5009311;28;20214;-88
2021/10/11 11:55:32;;;;;;;18.33;16.63;;;13.50;75.20;;;;;;5013050;28;20197;-89
2021/10/11 11:57:58;;;;;;;20.23;18.10;;;13.60;74.70;;;;;;5005253;28;20209;-89
2021/10/11 12:00:26;;;;;;;19.50;17.43;;;13.60;74.40;;;;;;5024139;28;20221;-89
2021/10/11 12:02:54;;;;;;;19.67;17.77;;;13.50;74.50;;;;;;5029396;28;20243;-89
2021/10/11 12:05:21;;;;;;;18.63;16.80;;;13.30;75.40;;;;;;5024656;28;20218;-89
2021/10/11 12:07:47;;;;;;;21.80;18.53;;;13.40;75.60;;;;;;5006667;28;20597;-88
2021/10/11 12:10:24;;;;;;;19.37;17.47;;;13.40;74.70;;;;;;5016308;28;20540;-89
2021/10/11 12:13:19;;;;;;;21.07;19.17;;;13.40;75.20;;;;;;5011848;28;20317;-90
2021/10/11 12:15:45;;;;;;;20.90;18.50;;;13.30;75.60;;;;;;5007601;28;20260;-89
2021/10/11 12:18:11;;;;;;;20.03;18.13;;;13.30;76.30;;;;;;5010228;28;20212;-87
2021/10/11 12:20:45;;;;;;;23.13;20.70;;;13.30;76.40;;;;;;5012628;28;20188;-90
2021/10/11 12:23:11;;;;;;;22.60;18.47;;;13.20;76.50;;;;;;5021195;28;20213;-89
2021/10/11 12:25:38;;;;;;;21.60;19.30;;;13.20;78.00;;;;;;5020235;28;20217;-88
2021/10/11 12:28:19;;;;;;;20.63;18.60;;;13.20;78.00;;;;;;5018091;28;20683;-88
2021/10/11 12:30:47;;;;;;;20.73;18.63;;;13.50;76.80;;;;;;5023432;28;20197;-90
2021/10/11 12:33:17;;;;;;;23.00;20.73;;;13.70;76.40;;;;;;5015869;28;20205;-89
2021/10/11 12:35:44;;;;;;;21.37;19.23;;;13.60;75.30;;;;;;5004845;28;20227;-89